sensor_id;sensor_type;location;lat;lon;timestamp;pressure;altitude;pressure_sealevel;temperature;humidity
11621;BME280;5866;49.094;11.900;2022-11-27T00:00:14;97522.09;;;2.60;100.00
11621;BME280;5866;49.094;11.900;2022-11-27T00:02:41;97525.16;;;2.53;100.00
11621;BME280;5866;49.094;11.900;2022-11-27T00:05:09;97524.84;;;2.41;100.00
11621;BME280;5866;49.094;11.900;2022-11-27T00:07:37;97523.66;;;2.31;100.00
11621;BME280;5866;49.094;11.900;2022-11-27T00:10:06;97519.38;;;2.13;100.00
11621;BME280;5866;49.094;11.900;2022-11-27T00:12:35;97512.13;;;2.18;100.00
11621;BME280;5866;49.094;11.900;2022-11-27T00:15:03;97519.75;;;2.23;100.00
11621;BME280;5866;49.094;11.900;2022-11-27T00:17:31;97511.31;;;2.33;100.00
11621;BME280;5866;49.094;11.900;2022-11-27T00:19:58;97505.44;;;2.46;100.00
11621;BME280;5866;49.094;11.900;2022-11-27T00:22:26;97503.25;;;2.38;100.00
11621;BME280;5866;49.094;11.900;2022-11-27T00:24:54;97503.25;;;2.38;100.00
11621;BME280;5866;49.094;11.900;2022-11-27T00:27:21;97505.94;;;2.36;100.00
11621;BME280;5866;49.094;11.900;2022-11-27T00:29:50;97496.94;;;2.25;100.00
11621;BME280;5866;49.094;11.900;2022-11-27T00:32:18;97491.03;;;2.21;100.00
11621;BME280;5866;49.094;11.900;2022-11-27T00:34:46;97492.91;;;2.19;100.00
11621;BME280;5866;49.094;11.900;2022-11-27T00:37:13;97486.16;;;2.31;100.00
11621;BME280;5866;49.094;11.900;2022-11-27T00:39:41;97481.78;;;2.31;100.00
11621;BME280;5866;49.094;11.900;2022-11-27T00:42:08;97467.91;;;2.29;100.00
11621;BME280;5866;49.094;11.900;2022-11-27T00:44:36;97464.53;;;2.27;100.00
11621;BME280;5866;49.094;11.900;2022-11-27T00:47:05;97467.94;;;1.97;100.00
11621;BME280;5866;49.094;11.900;2022-11-27T00:49:33;97464.34;;;2.15;100.00
11621;BME280;5866;49.094;11.900;2022-11-27T00:52:00;97461.34;;;2.38;100.00
11621;BME280;5866;49.094;11.900;2022-11-27T00:54:28;97460.34;;;2.40;100.00
11621;BME280;5866;49.094;11.900;2022-11-27T00:56:56;97465.63;;;2.23;100.00
11621;BME280;5866;49.094;11.900;2022-11-27T00:59:23;97460.69;;;2.34;100.00
11621;BME280;5866;49.094;11.900;2022-11-27T01:01:51;97455.94;;;2.41;100.00
11621;BME280;5866;49.094;11.900;2022-11-27T01:04:20;97462.47;;;2.17;100.00
11621;BME280;5866;49.094;11.900;2022-11-27T01:06:47;97458.97;;;2.33;100.00
11621;BME280;5866;49.094;11.900;2022-11-27T01:09:15;97458.81;;;2.52;100.00
11621;BME280;5866;49.094;11.900;2022-11-27T01:11:43;97455.88;;;2.42;100.00
11621;BME280;5866;49.094;11.900;2022-11-27T01:14:14;97455.25;;;2.37;100.00
11621;BME280;5866;49.094;11.900;2022-11-27T01:16:42;97461.88;;;2.45;100.00
11621;BME280;5866;49.094;11.900;2022-11-27T01:19:11;97463.06;;;2.55;100.00
11621;BME280;5866;49.094;11.900;2022-11-27T01:21:40;97463.06;;;2.55;100.00
11621;BME280;5866;49.094;11.900;2022-11-27T01:24:09;97462.28;;;2.53;100.00
11621;BME280;5866;49.094;11.900;2022-11-27T01:26:38;97460.53;;;2.53;100.00
11621;BME280;5866;49.094;11.900;2022-11-27T01:29:06;97456.88;;;2.56;100.00
11621;BME280;5866;49.094;11.900;2022-11-27T01:31:34;97459.19;;;2.62;100.00
11621;BME280;5866;49.094;11.900;2022-11-27T01:34:04;97458.34;;;2.61;100.00
11621;BME280;5866;49.094;11.900;2022-11-27T01:36:32;97461.63;;;2.65;100.00
11621;BME280;5866;49.094;11.900;2022-11-27T01:39:02;97455.13;;;2.72;100.00
11621;BME280;5866;49.094;11.900;2022-11-27T01:41:31;97457.03;;;2.68;100.00
11621;BME280;5866;49.094;11.900;2022-11-27T01:44:02;97452.56;;;2.70;100.00
11621;BME280;5866;49.094;11.900;2022-11-27T01:46:34;97451.75;;;2.70;100.00
11621;BME280;5866;49.094;11.900;2022-11-27T01:49:25;97445.81;;;2.82;100.00
11621;BME280;5866;49.094;11.900;2022-11-27T01:51:59;97445.81;;;2.82;100.00
11621;BME280;5866;49.094;11.900;2022-11-27T01:54:32;97439.72;;;2.81;100.00
11621;BME280;5866;49.094;11.900;2022-11-27T01:57:18;97447.50;;;2.83;100.00
11621;BME280;5866;49.094;11.900;2022-11-27T01:59:47;97443.97;;;2.84;100.00
11621;BME280;5866;49.094;11.900;2022-11-27T02:02:17;97441.94;;;2.89;100.00
11621;BME280;5866;49.094;11.900;2022-11-27T02:04:44;97445.47;;;2.88;100.00
11621;BME280;5866;49.094;11.900;2022-11-27T02:07:12;97446.31;;;3.04;100.00
11621;BME280;5866;49.094;11.900;2022-11-27T02:09:41;97439.03;;;3.09;100.00
11621;BME280;5866;49.094;11.900;2022-11-27T02:12:15;97429.31;;;3.11;100.00
11621;BME280;5866;49.094;11.900;2022-11-27T02:14:57;97425.84;;;3.10;100.00
11621;BME280;5866;49.094;11.900;2022-11-27T02:17:34;97428.56;;;3.09;100.00
11621;BME280;5866;49.094;11.900;2022-11-27T02:20:26;97425.69;;;3.13;100.00
11621;BME280;5866;49.094;11.900;2022-11-27T02:23:14;97419.56;;;3.29;100.00
11621;BME280;5866;49.094;11.900;2022-11-27T02:26:06;97415.34;;;3.26;100.00
11621;BME280;5866;49.094;11.900;2022-11-27T02:28:54;97410.47;;;3.04;100.00
11621;BME280;5866;49.094;11.900;2022-11-27T02:31:28;97409.00;;;2.85;100.00
11621;BME280;5866;49.094;11.900;2022-11-27T02:34:06;97408.97;;;2.69;100.00
11621;BME280;5866;49.094;11.900;2022-11-27T02:36:38;97415.41;;;2.64;100.00
11621;BME280;5866;49.094;11.900;2022-11-27T02:39:10;97413.38;;;2.69;100.00
11621;BME280;5866;49.094;11.900;2022-11-27T02:41:43;97405.41;;;2.86;100.00
11621;BME280;5866;49.094;11.900;2022-11-27T02:44:15;97408.09;;;3.00;100.00
11621;BME280;5866;49.094;11.900;2022-11-27T02:46:45;97406.22;;;3.02;100.00
11621;BME280;5866;49.094;11.900;2022-11-27T02:49:15;97407.44;;;2.81;100.00
11621;BME280;5866;49.094;11.900;2022-11-27T02:51:48;97404.56;;;2.85;100.00
11621;BME280;5866;49.094;11.900;2022-11-27T02:54:18;97397.63;;;3.00;100.00
11621;BME280;5866;49.094;11.900;2022-11-27T02:56:48;97406.53;;;2.51;100.00
11621;BME280;5866;49.094;11.900;2022-11-27T02:59:20;97401.03;;;2.71;100.00
11621;BME280;5866;49.094;11.900;2022-11-27T03:01:50;97388.94;;;2.84;100.00
11621;BME280;5866;49.094;11.900;2022-11-27T03:04:26;97402.09;;;2.98;100.00
11621;BME280;5866;49.094;11.900;2022-11-27T03:07:02;97398.28;;;3.33;100.00
11621;BME280;5866;49.094;11.900;2022-11-27T03:09:34;97393.59;;;3.54;100.00
11621;BME280;5866;49.094;11.900;2022-11-27T03:12:03;97384.00;;;3.53;100.00
11621;BME280;5866;49.094;11.900;2022-11-27T03:14:34;97383.28;;;3.65;100.00
11621;BME280;5866;49.094;11.900;2022-11-27T03:17:10;97387.72;;;3.78;100.00
11621;BME280;5866;49.094;11.900;2022-11-27T03:19:45;97383.78;;;3.42;100.00
11621;BME280;5866;49.094;11.900;2022-11-27T03:22:15;97376.63;;;3.59;100.00
11621;BME280;5866;49.094;11.900;2022-11-27T03:24:43;97378.13;;;3.77;100.00
11621;BME280;5866;49.094;11.900;2022-11-27T03:27:12;97373.09;;;3.88;100.00
11621;BME280;5866;49.094;11.900;2022-11-27T03:29:46;97378.34;;;3.88;100.00
11621;BME280;5866;49.094;11.900;2022-11-27T03:32:16;97384.81;;;3.97;100.00
11621;BME280;5866;49.094;11.900;2022-11-27T03:34:44;97374.78;;;4.18;100.00
11621;BME280;5866;49.094;11.900;2022-11-27T03:37:13;97382.56;;;4.33;100.00
11621;BME280;5866;49.094;11.900;2022-11-27T03:39:41;97380.66;;;4.21;100.00
11621;BME280;5866;49.094;11.900;2022-11-27T03:42:15;97383.56;;;4.45;100.00
11621;BME280;5866;49.094;11.900;2022-11-27T03:44:51;97382.13;;;4.53;100.00
11621;BME280;5866;49.094;11.900;2022-11-27T03:47:33;97383.06;;;4.66;100.00
11621;BME280;5866;49.094;11.900;2022-11-27T03:50:12;97388.78;;;4.59;100.00
11621;BME280;5866;49.094;11.900;2022-11-27T03:52:48;97375.28;;;4.65;100.00
11621;BME280;5866;49.094;11.900;2022-11-27T03:55:22;97371.41;;;4.70;100.00
11621;BME280;5866;49.094;11.900;2022-11-27T03:57:56;97376.13;;;4.51;100.00
11621;BME280;5866;49.094;11.900;2022-11-27T04:00:26;97370.41;;;4.45;100.00
11621;BME280;5866;49.094;11.900;2022-11-27T04:02:54;97373.63;;;4.36;100.00
11621;BME280;5866;49.094;11.900;2022-11-27T04:05:22;97359.22;;;4.55;100.00
11621;BME280;5866;49.094;11.900;2022-11-27T04:07:50;97359.19;;;4.69;100.00
11621;BME280;5866;49.094;11.900;2022-11-27T04:10:17;97360.59;;;4.75;100.00
11621;BME280;5866;49.094;11.900;2022-11-27T04:12:45;97362.53;;;4.45;100.00
11621;BME280;5866;49.094;11.900;2022-11-27T04:15:13;97359.44;;;4.52;100.00
11621;BME280;5866;49.094;11.900;2022-11-27T04:17:42;97353.00;;;4.70;100.00
11621;BME280;5866;49.094;11.900;2022-11-27T04:20:11;97355.34;;;4.75;100.00
11621;BME280;5866;49.094;11.900;2022-11-27T04:22:39;97360.78;;;4.72;100.00
11621;BME280;5866;49.094;11.900;2022-11-27T04:25:08;97350.91;;;4.75;100.00
11621;BME280;5866;49.094;11.900;2022-11-27T04:27:35;97353.91;;;4.83;100.00
11621;BME280;5866;49.094;11.900;2022-11-27T04:30:04;97346.94;;;4.82;100.00
11621;BME280;5866;49.094;11.900;2022-11-27T04:32:31;97349.16;;;4.89;100.00
11621;BME280;5866;49.094;11.900;2022-11-27T04:35:00;97347.84;;;4.69;100.00
11621;BME280;5866;49.094;11.900;2022-11-27T04:37:28;97350.84;;;4.63;100.00
11621;BME280;5866;49.094;11.900;2022-11-27T04:39:55;97349.63;;;4.68;100.00
11621;BME280;5866;49.094;11.900;2022-11-27T04:42:23;97356.66;;;4.41;100.00
11621;BME280;5866;49.094;11.900;2022-11-27T04:44:51;97357.34;;;4.57;100.00
11621;BME280;5866;49.094;11.900;2022-11-27T04:47:18;97360.44;;;4.64;100.00
11621;BME280;5866;49.094;11.900;2022-11-27T04:49:46;97361.41;;;4.75;100.00
11621;BME280;5866;49.094;11.900;2022-11-27T04:52:15;97364.03;;;4.49;100.00
11621;BME280;5866;49.094;11.900;2022-11-27T04:54:42;97375.13;;;4.40;100.00
11621;BME280;5866;49.094;11.900;2022-11-27T04:57:10;97369.31;;;4.35;100.00
11621;BME280;5866;49.094;11.900;2022-11-27T04:59:37;97375.41;;;4.35;100.00
11621;BME280;5866;49.094;11.900;2022-11-27T05:02:05;97379.69;;;4.50;100.00
11621;BME280;5866;49.094;11.900;2022-11-27T05:04:33;97377.16;;;4.49;100.00
11621;BME280;5866;49.094;11.900;2022-11-27T05:07:00;97371.38;;;4.44;100.00
11621;BME280;5866;49.094;11.900;2022-11-27T05:09:29;97368.03;;;4.68;100.00
11621;BME280;5866;49.094;11.900;2022-11-27T05:11:57;97376.38;;;4.75;100.00
11621;BME280;5866;49.094;11.900;2022-11-27T05:14:24;97376.66;;;4.70;100.00
11621;BME280;5866;49.094;11.900;2022-11-27T05:16:56;97364.16;;;4.74;100.00
11621;BME280;5866;49.094;11.900;2022-11-27T05:19:26;97358.50;;;4.80;100.00
11621;BME280;5866;49.094;11.900;2022-11-27T05:21:55;97363.09;;;4.36;100.00
11621;BME280;5866;49.094;11.900;2022-11-27T05:24:24;97366.47;;;4.52;100.00
11621;BME280;5866;49.094;11.900;2022-11-27T05:26:54;97359.59;;;4.90;100.00
11621;BME280;5866;49.094;11.900;2022-11-27T05:29:23;97359.09;;;4.98;100.00
11621;BME280;5866;49.094;11.900;2022-11-27T05:31:51;97360.69;;;5.00;100.00
11621;BME280;5866;49.094;11.900;2022-11-27T05:34:19;97352.00;;;5.12;100.00
11621;BME280;5866;49.094;11.900;2022-11-27T05:36:46;97355.22;;;5.03;100.00
11621;BME280;5866;49.094;11.900;2022-11-27T05:39:14;97368.91;;;5.08;100.00
11621;BME280;5866;49.094;11.900;2022-11-27T05:41:42;97355.66;;;5.10;100.00
11621;BME280;5866;49.094;11.900;2022-11-27T05:44:13;97343.91;;;5.28;100.00
11621;BME280;5866;49.094;11.900;2022-11-27T05:46:41;97345.59;;;5.29;100.00
11621;BME280;5866;49.094;11.900;2022-11-27T05:49:11;97334.91;;;5.32;100.00
11621;BME280;5866;49.094;11.900;2022-11-27T05:51:39;97338.06;;;5.49;100.00
11621;BME280;5866;49.094;11.900;2022-11-27T05:54:14;97334.91;;;5.44;100.00
11621;BME280;5866;49.094;11.900;2022-11-27T05:56:42;97331.31;;;5.45;100.00
11621;BME280;5866;49.094;11.900;2022-11-27T05:59:09;97331.75;;;5.52;100.00
11621;BME280;5866;49.094;11.900;2022-11-27T06:01:39;97323.97;;;5.50;100.00
11621;BME280;5866;49.094;11.900;2022-11-27T06:04:06;97320.16;;;5.42;100.00
11621;BME280;5866;49.094;11.900;2022-11-27T06:06:34;97328.69;;;5.45;100.00
11621;BME280;5866;49.094;11.900;2022-11-27T06:09:02;97333.81;;;5.34;100.00
11621;BME280;5866;49.094;11.900;2022-11-27T06:11:37;97329.66;;;5.44;100.00
11621;BME280;5866;49.094;11.900;2022-11-27T06:14:06;97330.91;;;5.51;100.00
11621;BME280;5866;49.094;11.900;2022-11-27T06:16:34;97340.19;;;5.44;100.00
11621;BME280;5866;49.094;11.900;2022-11-27T06:19:03;97333.03;;;5.46;100.00
11621;BME280;5866;49.094;11.900;2022-11-27T06:21:30;97340.09;;;4.80;100.00
11621;BME280;5866;49.094;11.900;2022-11-27T06:23:58;97337.63;;;4.64;100.00
11621;BME280;5866;49.094;11.900;2022-11-27T06:26:27;97331.03;;;4.98;100.00
11621;BME280;5866;49.094;11.900;2022-11-27T06:28:56;97338.84;;;4.59;100.00
11621;BME280;5866;49.094;11.900;2022-11-27T06:31:25;97341.00;;;4.93;100.00
11621;BME280;5866;49.094;11.900;2022-11-27T06:33:54;97350.53;;;4.81;100.00
11621;BME280;5866;49.094;11.900;2022-11-27T06:36:26;97345.16;;;5.22;100.00
11621;BME280;5866;49.094;11.900;2022-11-27T06:38:54;97346.47;;;5.29;100.00
11621;BME280;5866;49.094;11.900;2022-11-27T06:41:23;97346.97;;;5.34;100.00
11621;BME280;5866;49.094;11.900;2022-11-27T06:43:52;97340.38;;;5.41;100.00
11621;BME280;5866;49.094;11.900;2022-11-27T06:46:22;97338.34;;;5.45;100.00
11621;BME280;5866;49.094;11.900;2022-11-27T06:48:51;97335.41;;;5.37;100.00
11621;BME280;5866;49.094;11.900;2022-11-27T06:51:20;97335.72;;;5.45;100.00
11621;BME280;5866;49.094;11.900;2022-11-27T06:53:51;97326.25;;;5.30;100.00
11621;BME280;5866;49.094;11.900;2022-11-27T06:56:22;97327.31;;;5.27;100.00
11621;BME280;5866;49.094;11.900;2022-11-27T06:58:51;97324.97;;;5.23;100.00
11621;BME280;5866;49.094;11.900;2022-11-27T07:01:20;97329.28;;;5.36;100.00
11621;BME280;5866;49.094;11.900;2022-11-27T07:03:48;97329.53;;;5.71;100.00
11621;BME280;5866;49.094;11.900;2022-11-27T07:06:17;97329.84;;;5.79;100.00
11621;BME280;5866;49.094;11.900;2022-11-27T07:08:45;97323.72;;;5.28;100.00
11621;BME280;5866;49.094;11.900;2022-11-27T07:11:16;97322.56;;;5.32;100.00
11621;BME280;5866;49.094;11.900;2022-11-27T07:13:44;97329.28;;;5.36;100.00
11621;BME280;5866;49.094;11.900;2022-11-27T07:16:12;97316.47;;;5.19;100.00
11621;BME280;5866;49.094;11.900;2022-11-27T07:18:42;97319.13;;;5.05;100.00
11621;BME280;5866;49.094;11.900;2022-11-27T07:21:10;97318.13;;;5.20;100.00
11621;BME280;5866;49.094;11.900;2022-11-27T07:23:38;97327.25;;;5.02;100.00
11621;BME280;5866;49.094;11.900;2022-11-27T07:26:06;97332.88;;;5.35;100.00
11621;BME280;5866;49.094;11.900;2022-11-27T07:28:36;97337.00;;;5.64;100.00
11621;BME280;5866;49.094;11.900;2022-11-27T07:31:04;97344.19;;;5.62;100.00
11621;BME280;5866;49.094;11.900;2022-11-27T07:33:32;97339.53;;;5.53;100.00
11621;BME280;5866;49.094;11.900;2022-11-27T07:36:03;97338.66;;;5.40;100.00
11621;BME280;5866;49.094;11.900;2022-11-27T07:38:31;97320.88;;;5.31;100.00
11621;BME280;5866;49.094;11.900;2022-11-27T07:40:58;97323.41;;;5.45;100.00
11621;BME280;5866;49.094;11.900;2022-11-27T07:43:26;97324.78;;;5.51;100.00
11621;BME280;5866;49.094;11.900;2022-11-27T07:45:55;97323.94;;;5.25;100.00
11621;BME280;5866;49.094;11.900;2022-11-27T07:48:23;97318.59;;;5.52;100.00
11621;BME280;5866;49.094;11.900;2022-11-27T07:50:51;97306.47;;;5.62;100.00
11621;BME280;5866;49.094;11.900;2022-11-27T07:53:18;97298.66;;;5.23;100.00
11621;BME280;5866;49.094;11.900;2022-11-27T07:55:46;97296.38;;;5.43;100.00
11621;BME280;5866;49.094;11.900;2022-11-27T07:58:13;97282.47;;;5.41;100.00
11621;BME280;5866;49.094;11.900;2022-11-27T08:00:41;97286.88;;;5.28;100.00
11621;BME280;5866;49.094;11.900;2022-11-27T08:03:10;97286.97;;;5.14;100.00
11621;BME280;5866;49.094;11.900;2022-11-27T08:05:38;97283.41;;;5.15;100.00
11621;BME280;5866;49.094;11.900;2022-11-27T08:08:05;97286.03;;;5.28;100.00
11621;BME280;5866;49.094;11.900;2022-11-27T08:10:33;97288.75;;;5.14;100.00
11621;BME280;5866;49.094;11.900;2022-11-27T08:13:02;97281.78;;;4.88;100.00
11621;BME280;5866;49.094;11.900;2022-11-27T08:15:30;97282.94;;;4.57;100.00
11621;BME280;5866;49.094;11.900;2022-11-27T08:17:57;97285.94;;;4.24;100.00
11621;BME280;5866;49.094;11.900;2022-11-27T08:20:26;97288.88;;;4.20;100.00
11621;BME280;5866;49.094;11.900;2022-11-27T08:22:54;97280.19;;;4.46;100.00
11621;BME280;5866;49.094;11.900;2022-11-27T08:25:28;97280.28;;;4.71;100.00
11621;BME280;5866;49.094;11.900;2022-11-27T08:27:55;97285.78;;;4.54;100.00
11621;BME280;5866;49.094;11.900;2022-11-27T08:30:23;97281.25;;;4.56;100.00
11621;BME280;5866;49.094;11.900;2022-11-27T08:32:51;97281.09;;;4.45;100.00
11621;BME280;5866;49.094;11.900;2022-11-27T08:35:18;97282.94;;;4.30;100.00
11621;BME280;5866;49.094;11.900;2022-11-27T08:37:49;97289.03;;;4.31;100.00
11621;BME280;5866;49.094;11.900;2022-11-27T08:40:17;97275.00;;;4.71;100.00
11621;BME280;5866;49.094;11.900;2022-11-27T08:42:44;97270.84;;;4.81;100.00
11621;BME280;5866;49.094;11.900;2022-11-27T08:45:12;97261.28;;;4.93;100.00
11621;BME280;5866;49.094;11.900;2022-11-27T08:47:39;97263.63;;;4.58;100.00
11621;BME280;5866;49.094;11.900;2022-11-27T08:50:09;97268.72;;;4.86;100.00
11621;BME280;5866;49.094;11.900;2022-11-27T08:52:37;97269.84;;;5.09;100.00
11621;BME280;5866;49.094;11.900;2022-11-27T08:55:07;97265.00;;;5.40;100.00
11621;BME280;5866;49.094;11.900;2022-11-27T08:57:34;97261.38;;;4.91;100.00
11621;BME280;5866;49.094;11.900;2022-11-27T09:00:03;97258.31;;;4.84;100.00
11621;BME280;5866;49.094;11.900;2022-11-27T09:02:32;97265.97;;;4.75;100.00
11621;BME280;5866;49.094;11.900;2022-11-27T09:04:59;97262.72;;;4.45;100.00
11621;BME280;5866;49.094;11.900;2022-11-27T09:07:27;97246.09;;;4.71;100.00
11621;BME280;5866;49.094;11.900;2022-11-27T09:09:55;97245.22;;;5.10;100.00
11621;BME280;5866;49.094;11.900;2022-11-27T09:12:24;97256.72;;;4.82;100.00
11621;BME280;5866;49.094;11.900;2022-11-27T09:14:52;97252.47;;;4.94;100.00
11621;BME280;5866;49.094;11.900;2022-11-27T09:17:20;97246.22;;;4.82;100.00
11621;BME280;5866;49.094;11.900;2022-11-27T09:19:47;97255.91;;;4.55;100.00
11621;BME280;5866;49.094;11.900;2022-11-27T09:22:15;97254.41;;;4.65;100.00
11621;BME280;5866;49.094;11.900;2022-11-27T09:24:43;97252.38;;;5.08;100.00
11621;BME280;5866;49.094;11.900;2022-11-27T09:27:11;97242.47;;;5.24;100.00
11621;BME280;5866;49.094;11.900;2022-11-27T09:29:40;97249.72;;;4.95;100.00
11621;BME280;5866;49.094;11.900;2022-11-27T09:32:08;97258.78;;;5.16;100.00
11621;BME280;5866;49.094;11.900;2022-11-27T09:34:35;97258.06;;;5.52;100.00
11621;BME280;5866;49.094;11.900;2022-11-27T09:37:03;97258.91;;;5.27;100.00
11621;BME280;5866;49.094;11.900;2022-11-27T09:39:31;97264.81;;;5.43;100.00
11621;BME280;5866;49.094;11.900;2022-11-27T09:42:00;97261.31;;;5.55;100.00
11621;BME280;5866;49.094;11.900;2022-11-27T09:44:35;97257.03;;;5.54;100.00
11621;BME280;5866;49.094;11.900;2022-11-27T09:47:13;97261.84;;;5.86;100.00
11621;BME280;5866;49.094;11.900;2022-11-27T09:49:46;97239.28;;;5.82;100.00
11621;BME280;5866;49.094;11.900;2022-11-27T09:52:19;97241.00;;;5.57;100.00
11621;BME280;5866;49.094;11.900;2022-11-27T09:54:55;97239.50;;;5.91;100.00
11621;BME280;5866;49.094;11.900;2022-11-27T09:57:27;97242.47;;;5.36;100.00
11621;BME280;5866;49.094;11.900;2022-11-27T10:00:00;97239.63;;;5.64;100.00
11621;BME280;5866;49.094;11.900;2022-11-27T10:02:32;97243.56;;;5.46;100.00
11621;BME280;5866;49.094;11.900;2022-11-27T10:05:05;97228.03;;;5.80;100.00
11621;BME280;5866;49.094;11.900;2022-11-27T10:07:50;97223.34;;;6.08;100.00
11621;BME280;5866;49.094;11.900;2022-11-27T10:10:38;97223.09;;;5.75;100.00
11621;BME280;5866;49.094;11.900;2022-11-27T10:13:15;97220.69;;;5.47;100.00
11621;BME280;5866;49.094;11.900;2022-11-27T10:15:50;97221.22;;;5.52;100.00
11621;BME280;5866;49.094;11.900;2022-11-27T10:18:28;97219.16;;;5.44;100.00
11621;BME280;5866;49.094;11.900;2022-11-27T10:21:02;97212.72;;;5.36;100.00
11621;BME280;5866;49.094;11.900;2022-11-27T10:23:40;97205.03;;;5.33;100.00
11621;BME280;5866;49.094;11.900;2022-11-27T10:26:15;97204.28;;;5.43;100.00
11621;BME280;5866;49.094;11.900;2022-11-27T10:28:50;97199.94;;;5.68;100.00
11621;BME280;5866;49.094;11.900;2022-11-27T10:31:28;97199.56;;;5.48;100.00
11621;BME280;5866;49.094;11.900;2022-11-27T10:34:01;97193.16;;;5.89;100.00
11621;BME280;5866;49.094;11.900;2022-11-27T10:36:33;97193.53;;;5.72;100.00
11621;BME280;5866;49.094;11.900;2022-11-27T10:39:05;97194.00;;;5.77;100.00
11621;BME280;5866;49.094;11.900;2022-11-27T10:41:44;97193.06;;;5.90;100.00
11621;BME280;5866;49.094;11.900;2022-11-27T10:44:25;97190.91;;;5.59;100.00
11621;BME280;5866;49.094;11.900;2022-11-27T10:46:58;97188.25;;;5.72;100.00
11621;BME280;5866;49.094;11.900;2022-11-27T10:49:29;97174.63;;;6.14;100.00
11621;BME280;5866;49.094;11.900;2022-11-27T10:51:58;97179.75;;;6.28;100.00
11621;BME280;5866;49.094;11.900;2022-11-27T10:54:27;97179.19;;;6.35;100.00
11621;BME280;5866;49.094;11.900;2022-11-27T10:57:07;97168.00;;;6.21;100.00
11621;BME280;5866;49.094;11.900;2022-11-27T10:59:42;97169.53;;;6.00;100.00
11621;BME280;5866;49.094;11.900;2022-11-27T11:02:25;97164.13;;;5.78;100.00
11621;BME280;5866;49.094;11.900;2022-11-27T11:04:54;97167.81;;;6.11;100.00
11621;BME280;5866;49.094;11.900;2022-11-27T11:07:53;97155.22;;;6.27;100.00
11621;BME280;5866;49.094;11.900;2022-11-27T11:10:25;97152.03;;;6.46;100.00
11621;BME280;5866;49.094;11.900;2022-11-27T11:13:13;97146.19;;;6.43;100.00
11621;BME280;5866;49.094;11.900;2022-11-27T11:15:47;97148.69;;;6.20;100.00
11621;BME280;5866;49.094;11.900;2022-11-27T11:18:17;97151.84;;;6.02;100.00
11621;BME280;5866;49.094;11.900;2022-11-27T11:20:51;97153.09;;;6.09;100.00
11621;BME280;5866;49.094;11.900;2022-11-27T11:23:24;97153.53;;;6.03;100.00
11621;BME280;5866;49.094;11.900;2022-11-27T11:25:55;97154.25;;;6.05;100.00
11621;BME280;5866;49.094;11.900;2022-11-27T11:28:23;97146.69;;;6.24;100.00
11621;BME280;5866;49.094;11.900;2022-11-27T11:30:54;97140.25;;;6.28;100.00
11621;BME280;5866;49.094;11.900;2022-11-27T11:33:22;97139.84;;;6.21;100.00
11621;BME280;5866;49.094;11.900;2022-11-27T11:35:53;97132.81;;;6.22;100.00
11621;BME280;5866;49.094;11.900;2022-11-27T11:38:27;97121.66;;;6.53;100.00
11621;BME280;5866;49.094;11.900;2022-11-27T11:40:59;97118.44;;;6.26;100.00
11621;BME280;5866;49.094;11.900;2022-11-27T11:43:28;97117.00;;;6.22;100.00
11621;BME280;5866;49.094;11.900;2022-11-27T11:46:07;97117.53;;;6.38;100.00
11621;BME280;5866;49.094;11.900;2022-11-27T11:48:55;97109.44;;;6.63;100.00
11621;BME280;5866;49.094;11.900;2022-11-27T11:51:37;97110.59;;;6.48;100.00
11621;BME280;5866;49.094;11.900;2022-11-27T11:54:19;97108.91;;;6.36;100.00
11621;BME280;5866;49.094;11.900;2022-11-27T11:56:51;97111.72;;;6.22;100.00
11621;BME280;5866;49.094;11.900;2022-11-27T11:59:25;97104.31;;;6.27;100.00
11621;BME280;5866;49.094;11.900;2022-11-27T12:02:12;97103.31;;;6.17;100.00
11621;BME280;5866;49.094;11.900;2022-11-27T12:05:23;97103.13;;;6.88;100.00
11621;BME280;5866;49.094;11.900;2022-11-27T12:08:07;97104.53;;;6.59;100.00
11621;BME280;5866;49.094;11.900;2022-11-27T12:10:53;97101.63;;;6.16;100.00
11621;BME280;5866;49.094;11.900;2022-11-27T12:13:37;97100.09;;;6.24;100.00
11621;BME280;5866;49.094;11.900;2022-11-27T12:16:13;97099.63;;;5.96;100.00
11621;BME280;5866;49.094;11.900;2022-11-27T12:18:56;97095.66;;;5.90;100.00
11621;BME280;5866;49.094;11.900;2022-11-27T12:21:34;97091.56;;;5.86;100.00
11621;BME280;5866;49.094;11.900;2022-11-27T12:24:13;97083.84;;;5.83;100.00
11621;BME280;5866;49.094;11.900;2022-11-27T12:26:57;97086.59;;;5.82;100.00
11621;BME280;5866;49.094;11.900;2022-11-27T12:29:44;97090.22;;;5.68;100.00
11621;BME280;5866;49.094;11.900;2022-11-27T12:32:27;97082.28;;;5.57;100.00
11621;BME280;5866;49.094;11.900;2022-11-27T12:35:29;97083.31;;;5.67;100.00
11621;BME280;5866;49.094;11.900;2022-11-27T12:38:08;97077.91;;;6.05;100.00
11621;BME280;5866;49.094;11.900;2022-11-27T12:40:49;97078.94;;;6.02;100.00
11621;BME280;5866;49.094;11.900;2022-11-27T12:43:23;97071.91;;;6.03;100.00
11621;BME280;5866;49.094;11.900;2022-11-27T12:45:56;97066.31;;;5.84;100.00
11621;BME280;5866;49.094;11.900;2022-11-27T12:48:30;97050.91;;;5.90;100.00
11621;BME280;5866;49.094;11.900;2022-11-27T12:51:03;97043.84;;;5.78;100.00
11621;BME280;5866;49.094;11.900;2022-11-27T12:53:35;97041.84;;;5.82;100.00
11621;BME280;5866;49.094;11.900;2022-11-27T12:56:14;97031.09;;;6.08;100.00
11621;BME280;5866;49.094;11.900;2022-11-27T12:58:50;97032.97;;;5.72;100.00
11621;BME280;5866;49.094;11.900;2022-11-27T13:01:24;97036.56;;;5.34;100.00
11621;BME280;5866;49.094;11.900;2022-11-27T13:04:05;97032.22;;;5.46;100.00
11621;BME280;5866;49.094;11.900;2022-11-27T13:06:44;97038.59;;;5.31;100.00
11621;BME280;5866;49.094;11.900;2022-11-27T13:09:17;97029.03;;;5.30;100.00
11621;BME280;5866;49.094;11.900;2022-11-27T13:11:47;97028.34;;;5.15;100.00
11621;BME280;5866;49.094;11.900;2022-11-27T13:14:18;97019.84;;;5.35;100.00
11621;BME280;5866;49.094;11.900;2022-11-27T13:16:49;97013.72;;;5.35;100.00
11621;BME280;5866;49.094;11.900;2022-11-27T13:19:23;97012.56;;;5.62;100.00
11621;BME280;5866;49.094;11.900;2022-11-27T13:21:54;97011.50;;;5.65;100.00